createdAt,value
2017-11-13T00:04:43.321Z,3.80
2017-11-13T00:10:11.473Z,4.20
2017-11-13T00:15:46.470Z,3.50
2017-11-13T00:21:14.656Z,3.30
2017-11-13T00:26:43.568Z,5.83
2017-11-13T00:32:12.693Z,3.57
2017-11-13T00:37:40.846Z,5.83
2017-11-13T00:43:09.045Z,3.10
2017-11-13T00:48:38.922Z,3.60
2017-11-13T00:54:07.105Z,2.73
2017-11-13T00:59:35.269Z,3.90
2017-11-13T01:05:03.454Z,4.17
2017-11-13T01:10:32.370Z,3.33
2017-11-13T01:16:02.478Z,2.80
2017-11-13T01:21:30.607Z,5.07
2017-11-13T01:26:59.123Z,3.00
2017-11-13T01:32:27.469Z,5.10
2017-11-13T01:37:55.622Z,2.90
2017-11-13T01:43:24.091Z,4.50
2017-11-13T01:48:53.000Z,4.50
2017-11-13T01:54:32.881Z,6.20
2017-11-13T02:00:01.336Z,3.13
2017-11-13T02:05:45.675Z,3.20
2017-11-13T02:11:14.563Z,4.80
2017-11-13T02:16:43.721Z,4.63
2017-11-13T02:22:12.641Z,5.07
2017-11-13T02:27:40.792Z,6.60
2017-11-13T02:33:08.943Z,8.70
2017-11-13T02:38:37.081Z,6.90
2017-11-13T02:44:22.167Z,5.70
2017-11-13T02:49:50.662Z,5.63
2017-11-13T02:55:19.560Z,6.30
2017-11-13T03:00:47.717Z,7.80
2017-11-13T03:06:17.005Z,8.20
2017-11-13T03:11:45.472Z,9.67
2017-11-13T03:17:13.616Z,9.10
2017-11-13T03:22:42.515Z,8.33
2017-11-13T03:28:10.649Z,9.90
2017-11-13T03:33:39.043Z,9.00
2017-11-13T03:39:08.156Z,10.30
2017-11-13T03:44:36.306Z,10.33
2017-11-13T03:50:04.862Z,14.00
2017-11-13T03:55:33.014Z,8.53
2017-11-13T04:01:01.184Z,9.10
2017-11-13T04:06:29.325Z,9.23
2017-11-13T04:12:02.874Z,9.30
2017-11-13T04:17:31.003Z,9.80
2017-11-13T04:22:59.900Z,8.27
2017-11-13T04:28:28.056Z,10.50
2017-11-13T04:33:56.964Z,11.87
2017-11-13T04:39:25.187Z,11.67
2017-11-13T04:44:53.372Z,9.87
2017-11-13T04:50:24.839Z,11.20
2017-11-13T04:55:53.755Z,9.70
2017-11-13T05:01:21.908Z,13.00
2017-11-13T05:06:50.846Z,12.70
2017-11-13T05:12:20.001Z,12.50
2017-11-13T05:17:49.916Z,13.50
2017-11-13T05:23:22.254Z,9.50
2017-11-13T05:28:51.180Z,13.00
2017-11-13T05:34:19.327Z,15.07
2017-11-13T05:39:48.443Z,11.03
2017-11-13T05:45:16.591Z,10.70
2017-11-13T05:50:44.888Z,11.77
2017-11-13T05:56:14.299Z,13.17
2017-11-13T06:01:42.427Z,20.00
2017-11-13T06:07:10.571Z,22.30
2017-11-13T06:12:38.727Z,16.90
2017-11-13T06:18:06.859Z,13.33
2017-11-13T06:23:35.013Z,12.73
2017-11-13T06:29:03.159Z,15.30
2017-11-13T06:34:31.635Z,15.93
2017-11-13T06:40:00.562Z,15.00
2017-11-13T06:45:28.692Z,16.07
2017-11-13T06:50:56.842Z,15.63
2017-11-13T06:56:25.013Z,15.23
2017-11-13T07:01:53.155Z,12.77
2017-11-13T07:07:21.287Z,13.30
2017-11-13T07:12:49.457Z,14.57
2017-11-13T07:18:18.405Z,14.40
2017-11-13T07:23:46.552Z,16.87
2017-11-13T07:29:14.764Z,15.63
2017-11-13T07:34:42.904Z,14.73
2017-11-13T07:40:11.084Z,17.53
2017-11-13T07:45:41.181Z,15.67
2017-11-13T07:51:09.423Z,17.30
2017-11-13T07:56:38.596Z,16.47
2017-11-13T08:02:06.803Z,17.57
2017-11-13T08:07:34.954Z,14.30
2017-11-13T08:13:03.128Z,17.07
2017-11-13T08:18:31.375Z,14.87
2017-11-13T08:24:00.320Z,16.90
2017-11-13T08:29:29.224Z,17.97
2017-11-13T08:34:57.369Z,15.67
2017-11-13T08:40:25.512Z,19.20
2017-11-13T08:45:53.652Z,15.93
2017-11-13T08:51:25.730Z,16.40
2017-11-13T08:56:54.742Z,11.23
2017-11-13T09:02:23.305Z,12.83
2017-11-13T09:07:52.216Z,14.53
2017-11-13T09:13:20.352Z,13.57
2017-11-13T09:18:49.272Z,12.67
2017-11-13T09:24:22.373Z,11.30
2017-11-13T09:29:50.525Z,9.37
2017-11-13T09:35:18.661Z,8.83
2017-11-13T09:40:47.833Z,9.23
2017-11-13T09:46:16.250Z,9.53
2017-11-13T09:51:44.400Z,8.77
2017-11-13T09:57:12.545Z,7.17
2017-11-13T10:02:40.675Z,9.27
2017-11-13T10:08:08.851Z,8.10
2017-11-13T10:13:37.009Z,7.10
2017-11-13T10:19:05.366Z,7.77
2017-11-13T10:24:33.521Z,7.60
2017-11-13T10:30:01.713Z,9.87
2017-11-13T10:35:29.864Z,9.97
2017-11-13T10:40:58.028Z,9.07
2017-11-13T10:46:26.933Z,8.67
2017-11-13T10:51:55.130Z,7.03
2017-11-13T10:57:23.297Z,7.07
2017-11-13T11:02:51.642Z,6.70
2017-11-13T11:08:19.841Z,5.13
2017-11-13T11:13:48.015Z,10.87
2017-11-13T11:19:21.687Z,7.03
2017-11-13T11:24:52.874Z,7.40
2017-11-13T11:30:21.714Z,8.40
2017-11-13T11:36:01.689Z,7.67
2017-11-13T11:41:29.827Z,7.23
2017-11-13T11:46:59.989Z,6.60
2017-11-13T11:52:29.156Z,6.93
2017-11-13T11:57:57.378Z,5.30
2017-11-13T12:03:25.545Z,5.60
2017-11-13T12:08:53.704Z,5.10
2017-11-13T12:14:21.891Z,6.20
2017-11-13T12:19:50.132Z,8.57
2017-11-13T12:25:18.300Z,6.50
2017-11-13T12:30:47.220Z,5.67
2017-11-13T12:36:23.312Z,10.73
2017-11-13T12:41:51.448Z,5.73
2017-11-13T12:47:23.593Z,9.77
2017-11-13T12:52:51.763Z,7.03
2017-11-13T12:58:19.916Z,14.43
2017-11-13T13:03:48.056Z,7.20
2017-11-13T13:09:16.210Z,6.67
2017-11-13T13:14:44.407Z,8.50
2017-11-13T13:20:12.533Z,5.13
2017-11-13T13:25:40.713Z,4.00
2017-11-13T13:31:08.862Z,5.70
2017-11-13T13:36:36.996Z,6.43
2017-11-13T13:42:17.033Z,4.90
2017-11-13T13:47:45.184Z,13.60
2017-11-13T13:53:13.329Z,3.80
2017-11-13T13:58:41.495Z,10.50
2017-11-13T14:04:11.064Z,4.60
2017-11-13T14:09:39.341Z,6.37
2017-11-13T14:15:07.501Z,6.30
2017-11-13T14:20:36.418Z,4.43
2017-11-13T14:26:04.582Z,5.27
2017-11-13T14:31:32.729Z,4.43
2017-11-13T14:37:00.868Z,7.83
2017-11-13T14:42:29.026Z,3.27
2017-11-13T14:47:57.941Z,3.60
2017-11-13T14:53:28.214Z,3.90
2017-11-13T14:58:56.587Z,3.70
2017-11-13T15:04:24.738Z,4.67
2017-11-13T15:09:52.959Z,4.40
2017-11-13T15:15:21.504Z,5.10
2017-11-13T15:20:52.831Z,5.10
2017-11-13T15:26:20.973Z,7.60
2017-11-13T15:31:49.132Z,4.27
2017-11-13T15:37:17.341Z,5.93
2017-11-13T15:42:45.493Z,6.00
2017-11-13T15:48:14.582Z,4.93
2017-11-13T15:53:42.930Z,9.77
2017-11-13T15:59:11.094Z,4.90
2017-11-13T16:04:39.226Z,6.83
2017-11-13T16:10:07.365Z,11.00
2017-11-13T16:15:35.520Z,5.53
2017-11-13T16:21:03.651Z,6.33
2017-11-13T16:26:31.797Z,6.37
2017-11-13T16:31:59.946Z,6.63
2017-11-13T16:37:28.169Z,4.90
2017-11-13T16:42:56.366Z,5.00
2017-11-13T16:48:24.527Z,8.80
2017-11-13T16:53:52.912Z,6.67
2017-11-13T16:59:21.591Z,10.00
2017-11-13T17:04:49.757Z,5.30
2017-11-13T17:10:17.909Z,7.40
2017-11-13T17:15:46.068Z,7.63
2017-11-13T17:21:15.018Z,4.80
2017-11-13T17:26:43.908Z,5.63
2017-11-13T17:32:12.063Z,4.93
2017-11-13T17:37:40.482Z,9.83
2017-11-13T17:43:08.637Z,7.53
2017-11-13T17:48:36.773Z,6.40
2017-11-13T17:54:05.013Z,11.43
2017-11-13T17:59:33.179Z,8.17
2017-11-13T18:05:01.326Z,13.07
2017-11-13T18:10:29.654Z,8.80
2017-11-13T18:15:57.830Z,21.53
2017-11-13T18:21:26.753Z,7.30
2017-11-13T18:26:54.929Z,12.27
2017-11-13T18:32:25.092Z,14.50
2017-11-13T18:37:53.243Z,18.20
2017-11-13T18:43:21.388Z,10.77
2017-11-13T18:48:49.595Z,16.10
2017-11-13T18:54:17.760Z,16.20
2017-11-13T18:59:45.986Z,17.30
2017-11-13T19:05:14.157Z,17.23
2017-11-13T19:10:45.460Z,19.83
2017-11-13T19:16:13.619Z,19.43
2017-11-13T19:21:41.768Z,18.60
2017-11-13T19:27:09.931Z,24.33
2017-11-13T19:32:39.087Z,15.20
2017-11-13T19:38:07.834Z,13.80
2017-11-13T19:43:35.995Z,8.03
2017-11-13T19:49:05.145Z,10.33
2017-11-13T19:54:34.223Z,10.40
2017-11-13T20:00:03.129Z,9.10
2017-11-13T20:05:31.307Z,9.33
2017-11-13T20:11:01.464Z,8.63
2017-11-13T20:16:29.631Z,7.23
2017-11-13T20:21:58.786Z,10.23
2017-11-13T20:27:27.034Z,10.17
2017-11-13T20:33:14.157Z,9.93
2017-11-13T20:38:48.663Z,14.97
2017-11-13T20:44:17.618Z,13.60
2017-11-13T20:49:52.873Z,11.70
2017-11-13T20:55:21.025Z,9.63
2017-11-13T21:00:49.191Z,8.30
2017-11-13T21:06:25.610Z,11.33
2017-11-13T21:11:57.046Z,5.53
2017-11-13T21:17:25.977Z,6.00
2017-11-13T21:22:55.017Z,7.33
2017-11-13T21:28:23.930Z,5.50
2017-11-13T21:33:54.034Z,7.17
2017-11-13T21:39:25.717Z,7.23
2017-11-13T21:45:00.828Z,11.20
2017-11-13T21:50:32.200Z,13.83
2017-11-13T21:56:01.154Z,10.73
2017-11-13T22:01:33.672Z,9.10
2017-11-13T22:07:02.580Z,8.17
2017-11-13T22:12:31.738Z,10.53
2017-11-13T22:17:59.882Z,15.93
2017-11-13T22:23:29.034Z,9.53
2017-11-13T22:28:57.264Z,10.70
2017-11-13T22:34:26.395Z,9.03
2017-11-13T22:39:54.561Z,10.73
2017-11-13T22:45:22.747Z,11.70
2017-11-13T22:50:51.032Z,9.07
2017-11-13T22:56:19.952Z,10.27
2017-11-13T23:01:49.146Z,11.67
2017-11-13T23:07:17.492Z,11.83
2017-11-13T23:12:46.500Z,10.90
2017-11-13T23:18:25.736Z,7.70
2017-11-13T23:23:53.873Z,10.20
2017-11-13T23:29:22.045Z,12.03
2017-11-13T23:34:50.229Z,7.23
2017-11-13T23:40:18.396Z,10.97
2017-11-13T23:45:46.710Z,10.23
2017-11-13T23:51:17.958Z,12.27
2017-11-13T23:56:46.856Z,10.53
